createdAt,value
2022-10-17T00:00:50.139Z,3.89
2022-10-17T00:03:17.970Z,3.82
2022-10-17T00:05:47.704Z,3.42
2022-10-17T00:08:16.615Z,3.56
2022-10-17T00:10:43.122Z,3.87
2022-10-17T00:13:11.114Z,3.54
2022-10-17T00:15:38.607Z,3.48
2022-10-17T00:18:05.210Z,3.63
2022-10-17T00:20:35.620Z,3.76
2022-10-17T00:23:02.272Z,3.81
2022-10-17T00:25:28.818Z,3.75
2022-10-17T00:27:55.328Z,3.73
2022-10-17T00:30:21.848Z,3.35
2022-10-17T00:32:48.447Z,3.49
2022-10-17T00:35:15.109Z,3.68
2022-10-17T00:37:41.682Z,3.67
2022-10-17T00:40:09.388Z,3.66
2022-10-17T00:42:36.012Z,3.69
2022-10-17T00:45:05.380Z,3.63
2022-10-17T00:47:35.406Z,3.64
2022-10-17T00:50:04.800Z,3.37
2022-10-17T00:52:32.736Z,3.75
2022-10-17T00:55:24.349Z,3.74
2022-10-17T00:57:52.611Z,3.70
2022-10-17T01:00:19.513Z,3.41
2022-10-17T01:02:46.263Z,3.55
2022-10-17T01:05:13.939Z,3.47
2022-10-17T01:07:42.904Z,3.66
2022-10-17T01:10:12.839Z,3.61
2022-10-17T01:12:52.536Z,3.37
2022-10-17T01:15:41.458Z,4.30
2022-10-17T01:18:32.702Z,4.32
2022-10-17T01:21:23.480Z,3.54
2022-10-17T01:24:05.033Z,3.58
2022-10-17T01:26:58.026Z,3.54
2022-10-17T01:29:34.312Z,3.27
2022-10-17T01:32:42.489Z,3.40
2022-10-17T01:35:12.030Z,3.63
2022-10-17T01:38:13.298Z,3.53
2022-10-17T01:40:53.535Z,3.13
2022-10-17T01:43:31.388Z,3.45
2022-10-17T01:46:15.300Z,3.69
2022-10-17T01:48:45.758Z,3.39
2022-10-17T01:51:21.275Z,3.41
2022-10-17T01:53:57.146Z,3.50
2022-10-17T01:56:29.960Z,3.31
2022-10-17T01:59:04.703Z,3.30
2022-10-17T02:01:32.332Z,3.55
2022-10-17T02:04:02.549Z,3.48
2022-10-17T02:06:29.116Z,3.32
2022-10-17T02:08:57.842Z,3.23
2022-10-17T02:11:27.266Z,3.47
2022-10-17T02:14:06.096Z,3.10
2022-10-17T02:16:35.818Z,3.43
2022-10-17T02:19:40.722Z,3.24
2022-10-17T02:22:41.108Z,3.29
2022-10-17T02:25:34.586Z,3.34
2022-10-17T02:28:16.221Z,3.31
2022-10-17T02:30:53.207Z,3.46
2022-10-17T02:33:33.041Z,3.22
2022-10-17T02:36:08.830Z,3.17
2022-10-17T02:38:35.843Z,3.21
2022-10-17T02:41:06.286Z,3.34
2022-10-17T02:43:36.117Z,3.27
2022-10-17T02:46:02.882Z,3.20
2022-10-17T02:48:51.946Z,3.23
2022-10-17T02:51:37.390Z,3.07
2022-10-17T02:54:17.972Z,3.16
2022-10-17T02:56:53.337Z,3.28
2022-10-17T02:59:25.228Z,3.37
2022-10-17T03:01:52.257Z,3.26
2022-10-17T03:04:19.634Z,3.36
2022-10-17T03:06:48.115Z,3.34
2022-10-17T03:09:15.290Z,3.63
2022-10-17T03:11:42.083Z,3.19
2022-10-17T03:14:08.810Z,3.66
2022-10-17T03:16:35.328Z,3.49
2022-10-17T03:19:02.035Z,3.56
2022-10-17T03:21:28.551Z,3.57
2022-10-17T03:23:55.056Z,3.57
2022-10-17T03:26:23.339Z,3.37
2022-10-17T03:28:53.477Z,3.64
2022-10-17T03:31:22.176Z,3.77
2022-10-17T03:33:48.938Z,3.59
2022-10-17T03:36:18.639Z,3.58
2022-10-17T03:38:46.532Z,3.21
2022-10-17T03:41:13.663Z,3.39
2022-10-17T03:43:40.666Z,3.46
2022-10-17T03:46:07.918Z,3.21
2022-10-17T03:48:34.539Z,3.48
2022-10-17T03:51:06.343Z,3.42
2022-10-17T03:53:33.139Z,3.69
2022-10-17T03:56:28.992Z,3.71
2022-10-17T03:58:56.017Z,3.46
2022-10-17T04:01:23.258Z,3.37
2022-10-17T04:03:52.117Z,3.32
2022-10-17T04:06:19.507Z,3.53
2022-10-17T04:08:46.002Z,3.81
2022-10-17T04:11:18.332Z,3.50
2022-10-17T04:13:46.133Z,3.53
2022-10-17T04:16:15.850Z,3.35
2022-10-17T04:18:42.896Z,3.52
2022-10-17T04:21:09.965Z,3.70
2022-10-17T04:23:36.480Z,3.52
2022-10-17T04:26:04.590Z,3.60
2022-10-17T04:28:32.699Z,3.92
2022-10-17T04:31:06.255Z,3.89
2022-10-17T04:33:34.354Z,3.80
2022-10-17T04:36:04.270Z,4.00
2022-10-17T04:38:31.699Z,3.88
2022-10-17T04:41:03.382Z,3.83
2022-10-17T04:43:35.124Z,3.58
2022-10-17T04:46:05.475Z,3.67
2022-10-17T04:48:32.853Z,4.29
2022-10-17T04:51:08.694Z,4.04
2022-10-17T04:53:37.168Z,3.84
2022-10-17T04:56:12.712Z,3.84
2022-10-17T04:58:39.731Z,3.72
2022-10-17T05:01:25.320Z,4.01
2022-10-17T05:03:52.713Z,4.37
2022-10-17T05:06:24.988Z,3.89
2022-10-17T05:08:51.882Z,4.06
2022-10-17T05:11:22.867Z,3.78
2022-10-17T05:13:55.340Z,3.94
2022-10-17T05:16:23.366Z,3.85
2022-10-17T05:18:53.046Z,4.19
2022-10-17T05:21:21.737Z,4.04
2022-10-17T05:23:48.374Z,4.01
2022-10-17T05:26:15.319Z,4.37
2022-10-17T05:28:42.027Z,4.36
2022-10-17T05:31:10.620Z,4.32
2022-10-17T05:33:38.760Z,4.37
2022-10-17T05:36:06.936Z,4.38
2022-10-17T05:38:42.567Z,4.47
2022-10-17T05:41:10.407Z,4.69
2022-10-17T05:43:36.954Z,4.64
2022-10-17T05:46:05.858Z,4.88
2022-10-17T05:48:33.151Z,4.51
2022-10-17T05:51:03.660Z,4.41
2022-10-17T05:53:32.211Z,4.47
2022-10-17T05:56:01.647Z,4.42
2022-10-17T06:01:15.515Z,4.72
2022-10-17T06:03:42.304Z,4.77
2022-10-17T06:06:11.760Z,4.97
2022-10-17T06:08:38.778Z,5.30
2022-10-17T06:11:09.125Z,5.21
2022-10-17T06:13:37.383Z,5.36
2022-10-17T06:16:04.301Z,5.21
2022-10-17T06:18:30.856Z,4.94
2022-10-17T06:21:09.446Z,5.12
2022-10-17T06:23:35.985Z,5.19
2022-10-17T06:26:04.856Z,5.26
2022-10-17T06:28:31.620Z,5.39
2022-10-17T06:30:58.449Z,5.62
2022-10-17T06:33:25.107Z,5.02
2022-10-17T06:35:55.613Z,4.98
2022-10-17T06:38:22.883Z,4.75
2022-10-17T06:40:49.448Z,4.90
2022-10-17T06:43:16.081Z,5.09
2022-10-17T06:45:42.554Z,5.15
2022-10-17T06:48:09.120Z,5.47
2022-10-17T06:50:35.598Z,5.26
2022-10-17T06:53:02.119Z,5.02
2022-10-17T06:55:28.598Z,4.89
2022-10-17T06:57:56.971Z,4.99
2022-10-17T07:00:23.788Z,5.42
2022-10-17T07:02:50.263Z,5.75
2022-10-17T07:05:16.922Z,5.58
2022-10-17T07:07:44.858Z,5.74
2022-10-17T07:10:13.122Z,5.88
2022-10-17T07:12:39.766Z,5.93
2022-10-17T07:15:06.708Z,5.77
2022-10-17T07:17:33.288Z,5.56
2022-10-17T07:19:59.801Z,5.61
2022-10-17T07:22:26.336Z,5.51
2022-10-17T07:24:52.946Z,5.62
2022-10-17T07:27:21.408Z,5.52
2022-10-17T07:29:47.861Z,6.03
2022-10-17T07:32:14.602Z,5.58
2022-10-17T07:34:41.068Z,5.61
2022-10-17T07:37:08.008Z,6.02
2022-10-17T07:39:34.560Z,5.59
2022-10-17T07:42:01.078Z,5.14
2022-10-17T07:44:27.572Z,5.59
2022-10-17T07:46:54.058Z,5.97
2022-10-17T07:49:20.598Z,5.53
2022-10-17T07:51:48.237Z,5.58
2022-10-17T07:54:14.743Z,5.64
2022-10-17T07:56:41.268Z,6.01
2022-10-17T07:59:09.393Z,6.18
2022-10-17T08:01:36.573Z,5.89
2022-10-17T08:04:03.076Z,6.01
2022-10-17T08:06:29.579Z,5.46
2022-10-17T08:08:56.082Z,5.65
2022-10-17T08:11:22.605Z,5.85
2022-10-17T08:13:49.068Z,6.17
2022-10-17T08:16:15.504Z,5.74
2022-10-17T08:18:43.121Z,5.49
2022-10-17T08:21:11.527Z,5.80
2022-10-17T08:23:38.034Z,6.21
2022-10-17T08:26:07.626Z,6.03
2022-10-17T08:28:39.972Z,5.82
2022-10-17T08:31:10.135Z,5.96
2022-10-17T08:33:38.126Z,6.02
2022-10-17T08:36:06.561Z,6.22
2022-10-17T08:38:35.772Z,5.68
2022-10-17T08:41:13.283Z,5.76
2022-10-17T08:43:51.025Z,6.23
2022-10-17T08:46:20.151Z,6.01
2022-10-17T08:48:51.643Z,5.87
2022-10-17T08:52:00.881Z,6.55
2022-10-17T08:54:48.711Z,7.67
2022-10-17T08:57:17.111Z,6.50
2022-10-17T08:59:45.465Z,6.64
2022-10-17T09:02:23.986Z,6.51
2022-10-17T09:04:53.461Z,6.65
2022-10-17T09:07:38.389Z,6.60
2022-10-17T09:10:11.560Z,6.69
2022-10-17T09:13:07.707Z,6.49
2022-10-17T09:15:57.740Z,6.83
2022-10-17T09:18:31.779Z,6.48
2022-10-17T09:21:06.277Z,5.94
2022-10-17T09:23:48.669Z,5.96
2022-10-17T09:26:15.456Z,5.61
2022-10-17T09:28:43.942Z,5.94
2022-10-17T09:31:20.403Z,5.54
2022-10-17T09:33:54.268Z,5.68
2022-10-17T09:36:27.315Z,5.49
2022-10-17T09:38:59.682Z,4.97
2022-10-17T09:41:46.457Z,5.01
2022-10-17T09:44:16.334Z,5.03
2022-10-17T09:46:51.907Z,4.88
2022-10-17T09:49:28.739Z,5.10
2022-10-17T09:51:55.472Z,5.20
2022-10-17T09:54:51.646Z,6.93
2022-10-17T09:57:20.918Z,5.66
2022-10-17T09:59:58.241Z,4.99
2022-10-17T10:02:27.548Z,4.80
2022-10-17T10:05:05.094Z,4.47
2022-10-17T10:07:39.255Z,4.99
2022-10-17T10:10:22.889Z,5.09
2022-10-17T10:13:04.260Z,5.20
2022-10-17T10:15:38.824Z,4.90
2022-10-17T10:18:25.538Z,5.23
2022-10-17T10:21:20.925Z,5.83
2022-10-17T10:23:59.671Z,6.27
2022-10-17T10:26:38.316Z,6.13
2022-10-17T10:29:27.821Z,6.03
2022-10-17T10:31:55.565Z,5.56
2022-10-17T10:34:24.862Z,4.83
2022-10-17T10:36:59.351Z,5.10
2022-10-17T10:39:45.716Z,5.51
2022-10-17T10:42:42.444Z,14.55
2022-10-17T10:45:47.006Z,6.22
2022-10-17T10:48:24.064Z,4.81
2022-10-17T10:50:55.226Z,5.29
2022-10-17T10:53:55.314Z,5.59
2022-10-17T10:56:38.903Z,5.10
2022-10-17T10:59:08.510Z,4.62
2022-10-17T11:02:01.724Z,4.63
2022-10-17T11:04:42.247Z,4.82
2022-10-17T11:07:18.121Z,5.01
2022-10-17T11:10:23.601Z,5.39
2022-10-17T11:13:08.829Z,5.44
2022-10-17T11:15:40.784Z,5.10
2022-10-17T11:18:32.797Z,4.77
2022-10-17T11:21:11.544Z,5.14
2022-10-17T11:23:56.266Z,4.28
2022-10-17T11:26:43.042Z,3.94
2022-10-17T11:29:12.882Z,4.24
2022-10-17T11:31:50.346Z,4.52
2022-10-17T11:34:29.257Z,4.66
2022-10-17T11:37:05.598Z,4.80
2022-10-17T11:42:36.915Z,4.54
2022-10-17T11:45:16.760Z,4.85
2022-10-17T11:47:48.434Z,4.51
2022-10-17T11:53:24.498Z,4.82
2022-10-17T11:55:54.566Z,4.26
2022-10-17T12:01:33.851Z,3.70
2022-10-17T12:04:39.641Z,3.90
2022-10-17T12:07:24.655Z,4.10
2022-10-17T12:10:21.996Z,4.37
2022-10-17T12:12:48.675Z,4.51
2022-10-17T12:15:28.917Z,3.81
2022-10-17T12:17:58.935Z,3.81
2022-10-17T12:20:28.910Z,4.15
2022-10-17T12:23:10.174Z,3.96
2022-10-17T12:26:01.172Z,3.72
2022-10-17T12:28:45.981Z,3.65
2022-10-17T12:31:15.521Z,3.20
2022-10-17T12:33:49.773Z,3.33
2022-10-17T12:36:19.272Z,3.69
2022-10-17T12:38:49.865Z,3.32
2022-10-17T12:41:37.560Z,3.43
2022-10-17T12:44:13.347Z,3.53
2022-10-17T12:46:56.410Z,3.78
2022-10-17T12:49:55.782Z,3.64
2022-10-17T12:52:26.114Z,3.42
2022-10-17T12:55:12.003Z,3.49
2022-10-17T12:57:55.683Z,3.24
2022-10-17T13:00:37.125Z,3.07
2022-10-17T13:03:16.074Z,3.17
2022-10-17T13:05:52.399Z,3.50
2022-10-17T13:08:32.951Z,3.67
2022-10-17T13:11:01.204Z,3.69
2022-10-17T13:13:36.522Z,3.54
2022-10-17T13:16:03.118Z,3.53
2022-10-17T13:18:32.766Z,3.65
2022-10-17T13:21:05.966Z,3.29
2022-10-17T13:23:37.695Z,3.06
2022-10-17T13:26:14.322Z,3.36
2022-10-17T13:28:42.872Z,3.40
2022-10-17T13:31:31.099Z,3.51
2022-10-17T13:34:02.147Z,3.13
2022-10-17T13:36:31.269Z,3.30
2022-10-17T13:39:04.796Z,3.44
2022-10-17T13:41:36.589Z,3.79
2022-10-17T13:44:13.615Z,3.72
2022-10-17T13:46:40.832Z,3.70
2022-10-17T13:49:32.784Z,3.60
2022-10-17T13:52:02.450Z,3.63
2022-10-17T13:54:33.819Z,4.09
2022-10-17T13:57:01.769Z,4.16
2022-10-17T13:59:40.111Z,4.30
2022-10-17T14:02:16.079Z,3.60
2022-10-17T14:05:15.012Z,3.53
2022-10-17T14:08:09.255Z,3.14
2022-10-17T14:10:38.307Z,2.77
2022-10-17T14:13:08.261Z,2.96
2022-10-17T14:15:36.743Z,2.98
2022-10-17T14:18:08.058Z,3.15
2022-10-17T14:21:19.792Z,3.28
2022-10-17T14:23:44.720Z,3.16
2022-10-17T14:26:16.611Z,2.69
2022-10-17T14:29:32.309Z,2.89
2022-10-17T14:32:08.030Z,2.32
2022-10-17T14:34:38.844Z,2.50
2022-10-17T14:40:23.024Z,2.60
2022-10-17T14:42:51.531Z,2.66
2022-10-17T14:45:32.057Z,2.29
2022-10-17T14:48:13.982Z,2.26
2022-10-17T14:50:40.918Z,2.14
2022-10-17T14:53:10.339Z,2.20
2022-10-17T14:55:39.398Z,2.36
2022-10-17T14:58:17.652Z,2.53
2022-10-17T15:00:51.618Z,2.68
2022-10-17T15:03:18.142Z,2.79
2022-10-17T15:05:46.019Z,2.73
2022-10-17T15:08:21.202Z,2.34
2022-10-17T15:10:49.464Z,2.22
2022-10-17T15:13:27.584Z,2.35
2022-10-17T15:15:54.959Z,2.70
2022-10-17T15:18:21.596Z,2.56
2022-10-17T15:20:52.024Z,2.51
2022-10-17T15:23:26.373Z,2.56
2022-10-17T15:25:53.080Z,2.66
2022-10-17T15:28:22.686Z,2.60
2022-10-17T15:30:49.447Z,3.21
2022-10-17T15:33:15.959Z,2.84
2022-10-17T15:35:42.594Z,2.84
2022-10-17T15:38:09.132Z,3.02
2022-10-17T15:40:37.407Z,2.92
2022-10-17T15:43:06.352Z,2.70
2022-10-17T15:45:33.425Z,2.88
2022-10-17T15:48:18.603Z,2.96
2022-10-17T15:50:45.169Z,3.46
2022-10-17T15:53:12.152Z,3.08
2022-10-17T15:55:41.111Z,2.72
2022-10-17T15:58:15.699Z,3.35
2022-10-17T16:00:42.405Z,3.91
2022-10-17T16:03:09.077Z,4.01
2022-10-17T16:05:36.001Z,4.21
2022-10-17T16:08:02.763Z,3.97
2022-10-17T16:10:29.252Z,3.50
2022-10-17T16:12:55.833Z,3.64
2022-10-17T16:15:25.201Z,4.13
2022-10-17T16:17:53.984Z,4.35
2022-10-17T16:20:22.356Z,4.27
2022-10-17T16:22:49.746Z,3.81
2022-10-17T16:25:23.197Z,4.52
2022-10-17T16:27:53.239Z,5.45
2022-10-17T16:32:49.675Z,4.29
2022-10-17T16:35:20.065Z,4.32
2022-10-17T16:37:46.658Z,4.35
2022-10-17T16:40:13.968Z,4.64
2022-10-17T16:42:40.560Z,4.16
2022-10-17T16:45:07.710Z,5.51
2022-10-17T16:47:34.190Z,4.68
2022-10-17T16:50:00.737Z,4.25
2022-10-17T16:52:27.377Z,4.79
2022-10-17T16:54:53.979Z,4.86
2022-10-17T16:57:20.479Z,4.49
2022-10-17T16:59:46.947Z,4.94
2022-10-17T17:02:16.345Z,4.64
2022-10-17T17:04:45.505Z,4.68
2022-10-17T17:07:11.971Z,4.74
2022-10-17T17:09:39.419Z,4.97
2022-10-17T17:12:06.029Z,8.14
2022-10-17T17:14:32.523Z,7.39
2022-10-17T17:17:01.731Z,6.33
2022-10-17T17:19:28.206Z,4.56
2022-10-17T17:21:54.649Z,4.53
2022-10-17T17:24:21.507Z,5.36
2022-10-17T17:26:53.726Z,7.26
2022-10-17T17:29:21.098Z,10.16
2022-10-17T17:31:48.087Z,6.01
2022-10-17T17:34:18.009Z,5.98
2022-10-17T17:36:45.228Z,5.71
2022-10-17T17:39:14.196Z,5.17
2022-10-17T17:41:42.168Z,5.16
2022-10-17T17:44:14.040Z,5.35
2022-10-17T17:46:43.230Z,5.41
2022-10-17T17:49:10.996Z,5.86
2022-10-17T17:51:37.667Z,6.66
2022-10-17T17:54:04.241Z,6.52
2022-10-17T17:56:30.747Z,7.14
2022-10-17T17:59:01.088Z,6.14
2022-10-17T18:01:30.634Z,7.23
2022-10-17T18:03:58.975Z,5.88
2022-10-17T18:06:26.656Z,6.02
2022-10-17T18:08:55.918Z,6.14
2022-10-17T18:11:22.514Z,6.05
2022-10-17T18:13:54.286Z,6.88
2022-10-17T18:16:20.979Z,8.66
2022-10-17T18:18:48.978Z,7.67
2022-10-17T18:21:15.980Z,8.20
2022-10-17T18:23:44.464Z,9.30
2022-10-17T18:26:11.428Z,11.28
2022-10-17T18:28:39.425Z,9.08
2022-10-17T18:31:17.935Z,7.06
2022-10-17T18:33:45.417Z,7.54
2022-10-17T18:36:14.627Z,7.31
2022-10-17T18:38:41.765Z,7.82
2022-10-17T18:41:14.545Z,10.48
2022-10-17T18:43:43.250Z,7.48
2022-10-17T18:46:15.140Z,6.52
2022-10-17T18:48:44.387Z,6.52
2022-10-17T18:51:12.565Z,6.22
2022-10-17T18:53:44.198Z,7.85
2022-10-17T18:56:11.537Z,6.16
2022-10-17T18:58:39.474Z,5.98
2022-10-17T19:01:09.213Z,6.36
2022-10-17T19:03:35.815Z,7.12
2022-10-17T19:06:04.853Z,5.89
2022-10-17T19:08:33.181Z,6.78
2022-10-17T19:11:12.902Z,5.98
2022-10-17T19:13:40.685Z,5.98
2022-10-17T19:16:09.800Z,6.05
2022-10-17T19:18:37.155Z,7.01
2022-10-17T19:21:06.891Z,7.21
2022-10-17T19:23:34.011Z,6.07
2022-10-17T19:26:04.955Z,5.91
2022-10-17T19:28:33.020Z,6.13
2022-10-17T19:31:00.515Z,6.46
2022-10-17T19:35:58.720Z,7.25
2022-10-17T19:38:25.936Z,6.08
2022-10-17T19:40:53.433Z,7.91
2022-10-17T19:43:20.566Z,6.23
2022-10-17T19:46:01.252Z,6.22
2022-10-17T19:48:30.984Z,9.95
2022-10-17T19:50:58.796Z,9.63
2022-10-17T19:53:25.754Z,7.70
2022-10-17T19:55:52.287Z,6.35
2022-10-17T19:58:19.559Z,6.10
2022-10-17T20:00:48.116Z,6.26
2022-10-17T20:03:14.744Z,5.95
2022-10-17T20:05:41.541Z,5.93
2022-10-17T20:08:08.551Z,6.13
2022-10-17T20:10:35.027Z,7.58
2022-10-17T20:13:01.658Z,8.16
2022-10-17T20:15:28.267Z,6.73
2022-10-17T20:17:54.845Z,6.02
2022-10-17T20:20:21.629Z,6.51
2022-10-17T20:22:48.189Z,6.14
2022-10-17T20:25:14.818Z,6.17
2022-10-17T20:27:41.301Z,6.76
2022-10-17T20:30:08.763Z,5.95
2022-10-17T20:32:39.478Z,7.53
2022-10-17T20:35:07.531Z,8.89
2022-10-17T20:37:41.573Z,8.91
2022-10-17T20:40:33.665Z,5.98
2022-10-17T20:42:56.723Z,6.25
2022-10-17T20:45:37.433Z,6.80
2022-10-17T20:48:15.309Z,7.05
2022-10-17T20:50:43.637Z,6.83
2022-10-17T20:53:35.429Z,6.65
2022-10-17T20:56:04.166Z,6.10
2022-10-17T20:58:30.896Z,6.13
2022-10-17T21:00:58.714Z,6.02
2022-10-17T21:03:25.317Z,6.61
2022-10-17T21:05:51.805Z,7.22
2022-10-17T21:08:18.276Z,7.08
2022-10-17T21:10:50.586Z,6.98
2022-10-17T21:13:20.941Z,6.85
2022-10-17T21:15:47.454Z,6.71
2022-10-17T21:18:13.985Z,6.73
2022-10-17T21:20:40.537Z,6.42
2022-10-17T21:23:09.511Z,5.68
2022-10-17T21:25:36.052Z,6.72
2022-10-17T21:28:02.606Z,6.64
2022-10-17T21:30:29.425Z,6.44
2022-10-17T21:32:56.129Z,5.79
2022-10-17T21:35:22.798Z,5.52
2022-10-17T21:37:49.266Z,5.75
2022-10-17T21:40:15.813Z,6.26
2022-10-17T21:42:42.338Z,6.60
2022-10-17T21:45:15.027Z,6.35
2022-10-17T21:47:49.840Z,5.83
2022-10-17T21:50:27.645Z,5.92
2022-10-17T21:52:54.193Z,5.95
2022-10-17T21:55:20.848Z,5.67
2022-10-17T21:57:47.350Z,5.35
2022-10-17T22:00:14.217Z,5.84
2022-10-17T22:02:40.803Z,5.53
2022-10-17T22:05:07.637Z,5.86
2022-10-17T22:07:37.199Z,5.49
2022-10-17T22:10:03.972Z,5.48
2022-10-17T22:12:30.636Z,5.62
2022-10-17T22:14:57.275Z,5.25
2022-10-17T22:17:26.505Z,5.33
2022-10-17T22:19:53.166Z,5.48
2022-10-17T22:22:19.792Z,5.95
2022-10-17T22:24:46.415Z,5.28
2022-10-17T22:27:12.985Z,5.08
2022-10-17T22:29:39.686Z,5.46
2022-10-17T22:32:08.621Z,5.49
2022-10-17T22:34:35.179Z,5.00
2022-10-17T22:37:04.673Z,5.19
2022-10-17T22:39:31.195Z,4.92
2022-10-17T22:41:57.717Z,4.76
2022-10-17T22:44:33.124Z,4.91
2022-10-17T22:46:59.587Z,4.99
2022-10-17T22:49:26.059Z,4.83
2022-10-17T22:51:52.551Z,4.85
2022-10-17T22:54:18.977Z,4.96
2022-10-17T22:56:45.485Z,4.77
2022-10-17T22:59:11.960Z,5.07
2022-10-17T23:01:38.472Z,5.30
2022-10-17T23:04:05.036Z,5.43
2022-10-17T23:06:31.552Z,5.47
2022-10-17T23:08:58.402Z,5.84
2022-10-17T23:11:24.967Z,5.63
2022-10-17T23:13:51.426Z,5.23
2022-10-17T23:16:17.947Z,5.40
2022-10-17T23:18:44.671Z,5.98
2022-10-17T23:21:11.594Z,5.38
2022-10-17T23:23:38.060Z,5.50
2022-10-17T23:26:10.976Z,5.43
2022-10-17T23:28:38.355Z,5.45
2022-10-17T23:31:16.341Z,5.65
2022-10-17T23:33:47.089Z,5.59
2022-10-17T23:36:16.186Z,5.86
2022-10-17T23:38:44.553Z,6.03
2022-10-17T23:41:11.872Z,5.73
2022-10-17T23:43:38.419Z,7.01
2022-10-17T23:46:06.242Z,6.92
2022-10-17T23:48:33.560Z,7.74
2022-10-17T23:51:00.175Z,8.20
2022-10-17T23:53:26.687Z,7.56
2022-10-17T23:55:53.431Z,7.00
2022-10-17T23:58:19.938Z,6.61
